Time;durP1;ratioP1;P1;durP2;ratioP2;P2;SDS_P1;SDS_P2;PMS_P1;PMS_P2;Temp;Humidity;BMP_temperature;BMP_pressure;BME280_temperature;BME280_humidity;BME280_pressure;Samples;Min_cycle;Max_cycle;Signal;HPM_P1;HPM_P2
2021/07/03 00:00:22;;;;;;;9.80;8.70;;;17.80;99.90;;;;;;10481772;28;20210;-81
2021/07/03 00:05:25;;;;;;;9.80;8.93;;;17.70;99.90;;;;;;10475898;28;20232;-81
2021/07/03 00:10:27;;;;;;;10.23;9.23;;;17.70;99.90;;;;;;10478590;28;20216;-80
2021/07/03 00:15:30;;;;;;;9.40;8.50;;;17.70;99.90;;;;;;10479553;28;20213;-81
2021/07/03 00:20:33;;;;;;;9.87;8.53;;;17.70;99.90;;;;;;10479478;28;20231;-80
2021/07/03 00:25:35;;;;;;;10.07;8.83;;;17.60;99.90;;;;;;10461536;28;20227;-81
2021/07/03 00:30:38;;;;;;;10.07;9.10;;;17.60;99.90;;;;;;10480383;28;20303;-81
2021/07/03 00:35:41;;;;;;;11.93;9.23;;;17.50;99.90;;;;;;10467554;28;20719;-81
2021/07/03 00:40:43;;;;;;;10.37;9.37;;;17.50;99.90;;;;;;10477780;28;20205;-80
2021/07/03 00:45:47;;;;;;;10.50;9.50;;;17.50;99.90;;;;;;10446888;28;20238;-81
2021/07/03 00:50:50;;;;;;;10.17;9.33;;;17.40;99.90;;;;;;10497991;28;20209;-81
2021/07/03 00:55:54;;;;;;;10.87;8.83;;;17.40;99.90;;;;;;10499751;28;20752;-81
2021/07/03 01:00:58;;;;;;;10.03;9.13;;;17.40;99.90;;;;;;10491540;28;20415;-80
2021/07/03 01:06:01;;;;;;;10.23;9.00;;;17.30;99.90;;;;;;10494200;28;20747;-80
2021/07/03 01:11:03;;;;;;;9.30;8.50;;;17.30;99.90;;;;;;10497264;28;20661;-80
2021/07/03 01:16:08;;;;;;;11.00;9.90;;;17.30;99.90;;;;;;10496209;28;20718;-81
2021/07/03 01:21:19;;;;;;;12.90;10.20;;;17.20;99.90;;;;;;10495467;28;20279;-82
2021/07/03 01:26:23;;;;;;;10.87;9.87;;;17.10;99.90;;;;;;10488334;28;20318;-82
2021/07/03 01:31:25;;;;;;;10.50;9.60;;;17.00;99.90;;;;;;10471684;28;20205;-82
2021/07/03 01:36:27;;;;;;;11.10;10.10;;;17.00;99.90;;;;;;10452926;28;20237;-81
2021/07/03 01:41:31;;;;;;;10.77;9.90;;;17.00;99.90;;;;;;10489434;28;20220;-82
2021/07/03 01:46:34;;;;;;;9.83;9.03;;;17.00;99.90;;;;;;10489705;28;20303;-82
2021/07/03 01:51:39;;;;;;;10.83;9.93;;;17.00;99.90;;;;;;10471537;28;20261;-80
2021/07/03 01:56:45;;;;;;;11.10;10.00;;;17.00;99.90;;;;;;10494899;28;20224;-82
2021/07/03 02:01:52;;;;;;;9.50;8.70;;;16.90;99.90;;;;;;10464634;28;20643;-81
2021/07/03 02:06:58;;;;;;;10.37;9.57;;;16.90;99.90;;;;;;10488187;28;20654;-80
2021/07/03 02:12:07;;;;;;;9.60;8.70;;;16.90;99.90;;;;;;10488644;28;20382;-83
2021/07/03 02:17:19;;;;;;;10.50;9.50;;;16.90;99.90;;;;;;10471519;28;20232;-82
2021/07/03 02:22:22;;;;;;;10.50;9.60;;;16.90;99.90;;;;;;10471497;28;20716;-81
2021/07/03 02:27:28;;;;;;;10.33;9.33;;;16.80;99.90;;;;;;10497204;28;20224;-80
2021/07/03 02:32:38;;;;;;;9.70;8.77;;;16.80;99.90;;;;;;10495877;28;20586;-82
2021/07/03 02:37:41;;;;;;;10.57;9.67;;;16.80;99.90;;;;;;10489172;28;20728;-81
2021/07/03 02:42:46;;;;;;;11.00;10.10;;;16.80;99.90;;;;;;10475663;28;20216;-82
2021/07/03 02:47:48;;;;;;;10.50;9.57;;;16.80;99.90;;;;;;10494930;28;20231;-81
2021/07/03 02:52:52;;;;;;;9.87;8.93;;;16.70;99.90;;;;;;10495948;28;20200;-82
2021/07/03 02:57:56;;;;;;;10.23;9.33;;;16.70;99.90;;;;;;10498304;28;20216;-82
2021/07/03 03:02:59;;;;;;;9.90;9.03;;;16.70;99.90;;;;;;10486363;28;20228;-83
2021/07/03 03:08:01;;;;;;;10.50;9.40;;;16.60;99.90;;;;;;10513469;28;20213;-81
2021/07/03 03:13:08;;;;;;;10.70;9.40;;;16.60;99.90;;;;;;10477836;28;20197;-80
2021/07/03 03:18:11;;;;;;;10.90;10.00;;;16.50;99.90;;;;;;10460036;28;20276;-81
2021/07/03 03:23:15;;;;;;;11.17;10.00;;;16.60;99.90;;;;;;10500106;28;20227;-82
2021/07/03 03:28:19;;;;;;;9.20;8.60;;;16.50;99.90;;;;;;10501603;28;20652;-82
2021/07/03 03:33:23;;;;;;;9.17;8.43;;;16.50;99.90;;;;;;10485259;28;20228;-82
2021/07/03 03:38:26;;;;;;;12.20;8.93;;;16.50;99.90;;;;;;10498097;28;20298;-80
2021/07/03 03:43:30;;;;;;;9.27;8.37;;;16.40;99.90;;;;;;10473219;28;20248;-81
2021/07/03 03:48:33;;;;;;;10.33;9.43;;;16.40;99.90;;;;;;10493868;28;20197;-81
2021/07/03 03:53:36;;;;;;;12.03;9.97;;;16.40;99.90;;;;;;10481503;28;20220;-82
2021/07/03 03:58:41;;;;;;;9.90;9.00;;;16.40;99.90;;;;;;10451043;28;20596;-81
2021/07/03 04:03:44;;;;;;;10.07;9.17;;;16.50;99.90;;;;;;10467605;28;20357;-80
2021/07/03 04:08:48;;;;;;;10.20;9.30;;;16.50;99.90;;;;;;10497512;28;20215;-81
2021/07/03 04:13:52;;;;;;;9.83;8.93;;;16.50;99.90;;;;;;10466720;28;20266;-81
2021/07/03 04:18:54;;;;;;;9.80;8.90;;;16.50;99.90;;;;;;10496045;28;20216;-82
2021/07/03 04:23:56;;;;;;;10.70;9.70;;;16.50;99.90;;;;;;10481001;28;20616;-80
2021/07/03 04:29:00;;;;;;;11.43;9.13;;;16.60;99.90;;;;;;10491172;28;20212;-81
2021/07/03 04:34:02;;;;;;;10.57;9.50;;;16.60;99.90;;;;;;10490968;28;20224;-81
2021/07/03 04:39:04;;;;;;;11.27;10.17;;;16.70;99.90;;;;;;10496004;28;20205;-81
2021/07/03 04:44:08;;;;;;;10.67;9.77;;;16.70;99.90;;;;;;10496690;28;20307;-80
2021/07/03 04:49:10;;;;;;;10.73;9.80;;;16.80;99.90;;;;;;10483801;28;20201;-81
2021/07/03 04:54:13;;;;;;;10.70;9.73;;;16.90;99.90;;;;;;10495596;28;20221;-82
2021/07/03 04:59:18;;;;;;;11.23;9.80;;;16.90;99.90;;;;;;10495680;28;20219;-80
2021/07/03 05:04:24;;;;;;;11.40;10.20;;;16.90;99.90;;;;;;10495593;28;20619;-81
2021/07/03 05:09:26;;;;;;;12.70;9.80;;;17.00;99.90;;;;;;10469319;28;20627;-81
2021/07/03 05:14:29;;;;;;;10.23;9.33;;;17.00;99.90;;;;;;10494624;28;20220;-81
2021/07/03 05:19:31;;;;;;;9.40;8.53;;;17.10;99.90;;;;;;10495671;28;20235;-81
2021/07/03 05:24:34;;;;;;;10.20;9.30;;;17.10;99.90;;;;;;10495892;28;20290;-82
2021/07/03 05:29:37;;;;;;;10.43;9.53;;;17.20;99.90;;;;;;10496878;28;20211;-82
2021/07/03 05:34:39;;;;;;;9.93;9.10;;;17.20;99.90;;;;;;10503110;28;20611;-80
2021/07/03 05:39:41;;;;;;;10.90;9.90;;;17.30;99.90;;;;;;10515771;28;20603;-80
2021/07/03 05:44:45;;;;;;;9.20;8.40;;;17.40;99.90;;;;;;10499677;28;20236;-80
2021/07/03 05:49:47;;;;;;;9.97;8.97;;;17.40;99.90;;;;;;10511794;28;20205;-80
2021/07/03 05:54:49;;;;;;;10.17;9.37;;;17.50;99.90;;;;;;10514187;28;20224;-80
2021/07/03 05:59:53;;;;;;;9.67;8.67;;;17.60;99.90;;;;;;10499106;28;20208;-81
2021/07/03 06:04:55;;;;;;;11.00;10.00;;;17.70;99.90;;;;;;10520119;28;20604;-81
2021/07/03 06:09:57;;;;;;;13.37;12.27;;;17.80;99.90;;;;;;10522659;28;20232;-80
2021/07/03 06:15:01;;;;;;;21.60;19.50;;;17.80;99.90;;;;;;10520401;28;20259;-80
2021/07/03 06:20:04;;;;;;;17.77;16.17;;;17.90;99.90;;;;;;10502946;28;20360;-81
2021/07/03 06:25:08;;;;;;;15.00;13.50;;;18.00;99.90;;;;;;10512766;28;20224;-80
2021/07/03 06:30:12;;;;;;;12.70;11.40;;;18.10;99.90;;;;;;10506028;28;20209;-81
2021/07/03 06:35:15;;;;;;;13.20;12.00;;;18.20;99.90;;;;;;10506579;28;20228;-81
2021/07/03 06:40:17;;;;;;;10.80;9.80;;;18.30;99.90;;;;;;10520156;28;20293;-80
2021/07/03 06:45:20;;;;;;;11.63;10.53;;;18.50;99.90;;;;;;10509230;28;20308;-81
2021/07/03 06:50:22;;;;;;;12.03;10.90;;;18.70;99.90;;;;;;10516465;28;20628;-80
2021/07/03 06:55:24;;;;;;;9.63;8.83;;;19.00;99.90;;;;;;10516538;28;20217;-81
2021/07/03 07:00:28;;;;;;;11.20;10.10;;;19.40;99.90;;;;;;10511760;28;20229;-81
2021/07/03 07:05:31;;;;;;;10.17;9.07;;;19.80;99.90;;;;;;10514333;28;20244;-80
2021/07/03 07:10:33;;;;;;;9.70;8.80;;;20.10;99.90;;;;;;10504054;28;20204;-81
2021/07/03 07:15:36;;;;;;;9.70;8.80;;;20.50;99.90;;;;;;10494599;28;20255;-80
2021/07/03 07:20:39;;;;;;;9.47;8.67;;;20.80;99.90;;;;;;10515271;28;20204;-80
2021/07/03 07:25:41;;;;;;;10.13;9.23;;;21.30;99.90;;;;;;10483346;28;20221;-81
2021/07/03 07:30:45;;;;;;;9.10;8.30;;;21.60;99.90;;;;;;10451797;28;20205;-80
2021/07/03 07:35:47;;;;;;;8.37;6.80;;;22.00;99.90;;;;;;10446749;28;20314;-80
2021/07/03 07:40:49;;;;;;;7.90;7.30;;;22.50;99.90;;;;;;10482234;28;20258;-80
2021/07/03 07:45:55;;;;;;;7.50;6.90;;;23.10;99.90;;;;;;10518291;28;20224;-80
2021/07/03 07:51:00;;;;;;;7.63;6.93;;;23.30;99.30;;;;;;10526695;28;20215;-81
2021/07/03 07:56:02;;;;;;;7.13;6.40;;;23.50;99.20;;;;;;10523508;28;20648;-81
2021/07/03 08:01:05;;;;;;;7.37;6.73;;;24.00;99.10;;;;;;10528288;28;20722;-81
2021/07/03 08:06:08;;;;;;;7.37;6.77;;;24.40;98.30;;;;;;10527995;28;20236;-82
2021/07/03 08:11:10;;;;;;;7.03;6.53;;;24.90;97.40;;;;;;10533210;28;20552;-82
2021/07/03 08:16:14;;;;;;;6.70;6.20;;;25.40;95.20;;;;;;10523266;28;20227;-82
2021/07/03 08:21:17;;;;;;;5.40;5.00;;;26.00;93.20;;;;;;10529666;28;20201;-82
2021/07/03 08:26:19;;;;;;;5.60;5.20;;;26.50;92.50;;;;;;10526038;28;20243;-81
2021/07/03 08:31:22;;;;;;;6.73;6.10;;;27.00;89.70;;;;;;10529969;28;20236;-81
2021/07/03 08:36:25;;;;;;;6.47;5.97;;;27.50;86.20;;;;;;10528841;28;20294;-82
2021/07/03 08:41:29;;;;;;;6.50;6.00;;;28.00;85.70;;;;;;10531281;28;20201;-81
2021/07/03 08:46:33;;;;;;;6.60;6.10;;;28.30;82.20;;;;;;10529863;28;20236;-82
2021/07/03 08:51:35;;;;;;;5.37;4.97;;;28.60;77.80;;;;;;10529147;28;20228;-81
2021/07/03 08:56:37;;;;;;;5.93;5.43;;;28.90;70.60;;;;;;10528660;28;20224;-82
2021/07/03 09:01:49;;;;;;;6.03;5.57;;;29.10;71.50;;;;;;10534972;28;20274;-81
2021/07/03 09:06:51;;;;;;;6.20;5.80;;;29.30;68.50;;;;;;10536002;28;20225;-82
2021/07/03 09:11:57;;;;;;;6.00;5.50;;;29.50;68.00;;;;;;10524034;28;20197;-82
2021/07/03 09:17:01;;;;;;;6.13;5.60;;;29.50;64.30;;;;;;10538055;28;20224;-82
2021/07/03 09:22:05;;;;;;;6.17;5.67;;;29.70;66.10;;;;;;10534459;28;20192;-81
2021/07/03 09:27:08;;;;;;;6.07;5.57;;;30.00;65.70;;;;;;10524769;28;20307;-81
2021/07/03 09:32:12;;;;;;;5.30;4.90;;;30.40;65.10;;;;;;10488822;28;20212;-81
2021/07/03 09:37:16;;;;;;;6.10;5.50;;;30.80;64.50;;;;;;10471647;28;20256;-81
2021/07/03 09:42:20;;;;;;;5.30;4.90;;;31.40;59.40;;;;;;10477893;28;20275;-81
2021/07/03 09:47:23;;;;;;;6.90;6.20;;;31.80;58.80;;;;;;10509822;28;20734;-81
2021/07/03 09:52:26;;;;;;;5.67;5.27;;;32.80;59.10;;;;;;10507085;28;20660;-81
2021/07/03 09:57:29;;;;;;;5.60;5.20;;;33.90;53.50;;;;;;10471157;28;20223;-81
2021/07/03 10:02:34;;;;;;;5.50;5.10;;;35.10;49.50;;;;;;10468172;28;20561;-81
2021/07/03 10:07:41;;;;;;;5.23;3.93;;;36.20;48.20;;;;;;10470331;28;20228;-78
2021/07/03 10:12:49;;;;;;;6.20;4.63;;;37.40;46.40;;;;;;10508589;28;20206;-79
2021/07/03 10:17:53;;;;;;;4.32;4.03;;;38.60;45.00;;;;;;10521439;28;20224;-82
2021/07/03 10:22:56;;;;;;;4.63;4.32;;;39.20;43.00;;;;;;10470810;28;20212;-80
2021/07/03 10:28:00;;;;;;;4.90;4.50;;;39.30;39.50;;;;;;10487723;28;20225;-82
2021/07/03 10:33:05;;;;;;;4.80;4.47;;;37.40;39.90;;;;;;10479392;28;20238;-82
2021/07/03 10:38:16;;;;;;;4.70;4.40;;;34.80;42.50;;;;;;10479695;28;20572;-81
2021/07/03 10:43:21;;;;;;;6.47;6.07;;;32.80;45.90;;;;;;10515619;28;20251;-81
2021/07/03 10:48:26;;;;;;;4.97;4.67;;;31.10;46.10;;;;;;10520928;28;20586;-80
2021/07/03 10:53:30;;;;;;;5.27;4.87;;;29.90;49.20;;;;;;10520756;28;20243;-80
2021/07/03 10:58:32;;;;;;;5.03;4.63;;;28.80;51.00;;;;;;10512489;28;20204;-81
2021/07/03 11:03:42;;;;;;;6.00;5.57;;;28.00;52.90;;;;;;10518822;28;20588;-80
2021/07/03 11:08:45;;;;;;;7.40;5.63;;;27.40;54.50;;;;;;10519919;28;20204;-81
2021/07/03 11:13:48;;;;;;;9.93;6.07;;;26.90;55.90;;;;;;10519855;28;20724;-81
2021/07/03 11:18:51;;;;;;;6.30;5.80;;;26.60;57.50;;;;;;10521696;28;20268;-80
2021/07/03 11:23:59;;;;;;;6.73;6.13;;;26.30;55.90;;;;;;10530703;28;20247;-81
2021/07/03 11:29:02;;;;;;;5.70;5.30;;;26.20;56.00;;;;;;10523974;28;20264;-81
2021/07/03 11:34:06;;;;;;;4.70;4.30;;;26.00;59.10;;;;;;10512833;28;20220;-81
2021/07/03 11:39:08;;;;;;;6.03;5.40;;;25.90;56.90;;;;;;10489916;28;20708;-80
2021/07/03 11:44:10;;;;;;;5.70;5.20;;;25.70;57.20;;;;;;10494892;28;20227;-81
2021/07/03 11:49:14;;;;;;;5.80;5.40;;;25.50;57.10;;;;;;10500661;28;20299;-81
2021/07/03 11:54:19;;;;;;;5.50;5.10;;;25.40;61.10;;;;;;10485460;28;20239;-80
2021/07/03 11:59:21;;;;;;;5.87;5.30;;;25.30;58.30;;;;;;10473536;28;20212;-80
2021/07/03 12:04:26;;;;;;;5.40;5.03;;;25.20;57.50;;;;;;10495146;28;20327;-81
2021/07/03 12:09:35;;;;;;;5.47;5.10;;;25.10;61.50;;;;;;10480206;28;20258;-81
2021/07/03 12:14:37;;;;;;;5.33;4.90;;;25.10;59.30;;;;;;10465777;28;20254;-80
2021/07/03 12:19:42;;;;;;;5.13;4.80;;;25.10;58.60;;;;;;10489184;28;20560;-81
2021/07/03 12:24:45;;;;;;;4.87;4.57;;;25.30;60.30;;;;;;10496824;28;20311;-81
2021/07/03 12:29:48;;;;;;;5.80;5.40;;;25.40;57.60;;;;;;10489033;28;20205;-80
2021/07/03 12:34:51;;;;;;;4.70;4.40;;;25.60;57.10;;;;;;10495343;28;20228;-81
2021/07/03 12:39:55;;;;;;;5.00;4.60;;;25.60;56.70;;;;;;10492035;28;20200;-80
2021/07/03 12:45:05;;;;;;;5.07;4.77;;;25.60;56.20;;;;;;10472793;28;20235;-81
2021/07/03 12:50:11;;;;;;;5.03;4.73;;;25.70;58.60;;;;;;10479245;28;20212;-81
2021/07/03 12:55:13;;;;;;;5.20;4.87;;;25.90;57.40;;;;;;10455340;28;20304;-81
2021/07/03 13:00:20;;;;;;;5.73;5.37;;;26.20;57.00;;;;;;10453672;28;20298;-82
2021/07/03 13:05:24;;;;;;;5.27;4.87;;;26.30;58.60;;;;;;10453060;28;20264;-81
2021/07/03 13:10:26;;;;;;;4.50;4.20;;;26.20;55.10;;;;;;10457565;28;20223;-80
2021/07/03 13:15:28;;;;;;;5.53;5.13;;;26.10;55.50;;;;;;10488196;28;20266;-80
2021/07/03 13:20:35;;;;;;;5.67;5.27;;;26.00;55.80;;;;;;10496407;28;20209;-81
2021/07/03 13:25:38;;;;;;;5.70;5.30;;;26.00;58.70;;;;;;10489515;28;20236;-81
2021/07/03 13:30:42;;;;;;;5.73;5.30;;;25.80;56.40;;;;;;10495171;28;20236;-82
2021/07/03 13:35:45;;;;;;;4.77;4.47;;;25.80;57.60;;;;;;10468932;28;20239;-81
2021/07/03 13:40:47;;;;;;;7.40;5.43;;;25.70;58.70;;;;;;10495716;28;20610;-81
2021/07/03 13:45:49;;;;;;;6.17;5.30;;;25.70;55.50;;;;;;10490063;28;20636;-81
2021/07/03 13:50:53;;;;;;;6.37;5.87;;;25.60;56.00;;;;;;10488350;28;20200;-81
2021/07/03 13:55:55;;;;;;;5.93;5.17;;;25.60;57.40;;;;;;10483069;28;20216;-82
2021/07/03 14:00:57;;;;;;;4.60;4.30;;;25.50;58.00;;;;;;10470146;28;20201;-82
2021/07/03 14:06:00;;;;;;;4.93;4.53;;;25.50;58.60;;;;;;10479257;28;20303;-81
2021/07/03 14:11:05;;;;;;;5.00;4.60;;;25.50;58.00;;;;;;10490852;28;20283;-80
2021/07/03 14:16:08;;;;;;;5.10;4.73;;;25.40;59.90;;;;;;10470867;28;20243;-80
2021/07/03 14:21:14;;;;;;;6.10;5.60;;;25.30;58.10;;;;;;10479410;28;20683;-81
2021/07/03 14:26:17;;;;;;;5.63;5.23;;;25.30;58.70;;;;;;10473633;28;20212;-81
2021/07/03 14:31:19;;;;;;;5.10;4.70;;;25.50;62.80;;;;;;10471583;28;20263;-81
2021/07/03 14:36:25;;;;;;;4.97;4.60;;;25.60;61.50;;;;;;10488256;28;20261;-81
2021/07/03 14:41:28;;;;;;;6.03;4.70;;;25.60;60.70;;;;;;10466483;28;20208;-81
2021/07/03 14:46:31;;;;;;;5.07;4.77;;;25.50;60.40;;;;;;10484643;28;20263;-81
2021/07/03 14:51:34;;;;;;;5.60;5.10;;;25.50;62.80;;;;;;10485787;28;20283;-81
2021/07/03 14:56:36;;;;;;;5.33;4.90;;;25.30;66.50;;;;;;10499757;28;20220;-81
2021/07/03 15:01:39;;;;;;;4.80;4.47;;;25.20;69.10;;;;;;10496129;28;20209;-82
2021/07/03 15:06:42;;;;;;;4.53;4.23;;;25.10;60.10;;;;;;10502620;28;20235;-82
2021/07/03 15:11:44;;;;;;;4.87;4.50;;;25.30;60.90;;;;;;10502327;28;20291;-82
2021/07/03 15:16:46;;;;;;;5.73;5.33;;;25.50;65.20;;;;;;10487656;28;20654;-81
2021/07/03 15:21:50;;;;;;;5.07;4.73;;;25.50;62.80;;;;;;10499941;28;20209;-81
2021/07/03 15:26:52;;;;;;;5.30;4.90;;;25.60;64.30;;;;;;10484404;28;20327;-82
2021/07/03 15:31:54;;;;;;;9.90;4.80;;;25.60;62.50;;;;;;10499165;28;20640;-81
2021/07/03 15:36:57;;;;;;;6.20;5.80;;;25.60;67.30;;;;;;10499657;28;20239;-81
2021/07/03 15:41:59;;;;;;;5.80;5.30;;;25.50;69.70;;;;;;10495808;28;20201;-81
2021/07/03 15:47:05;;;;;;;5.23;4.83;;;25.50;68.00;;;;;;10499271;28;20235;-82
2021/07/03 15:52:08;;;;;;;5.63;5.23;;;25.50;71.20;;;;;;10499878;28;20645;-82
2021/07/03 15:57:10;;;;;;;6.10;5.50;;;25.50;73.40;;;;;;10493239;28;20695;-82
2021/07/03 16:02:12;;;;;;;5.53;5.13;;;25.50;72.80;;;;;;10498895;28;20205;-82
2021/07/03 16:07:16;;;;;;;5.57;5.17;;;25.40;72.00;;;;;;10495550;28;20270;-82
2021/07/03 16:12:18;;;;;;;5.60;5.20;;;25.30;74.20;;;;;;10487301;28;20292;-82
2021/07/03 16:17:20;;;;;;;6.33;5.67;;;25.00;75.20;;;;;;10473022;28;20339;-82
2021/07/03 16:22:24;;;;;;;5.60;5.20;;;24.80;75.20;;;;;;10498786;28;20680;-81
2021/07/03 16:27:26;;;;;;;5.90;5.50;;;24.70;76.00;;;;;;10498558;28;20227;-82
2021/07/03 16:32:28;;;;;;;5.73;5.23;;;24.50;75.70;;;;;;10498375;28;20706;-82
2021/07/03 16:37:32;;;;;;;5.73;5.33;;;24.40;74.70;;;;;;10499044;28;20725;-81
2021/07/03 16:42:34;;;;;;;7.07;6.23;;;24.30;76.80;;;;;;10480780;28;20231;-82
2021/07/03 16:47:36;;;;;;;7.00;6.40;;;24.30;76.00;;;;;;10494268;28;20224;-82
2021/07/03 16:52:40;;;;;;;5.93;5.50;;;24.20;74.40;;;;;;10501171;28;20585;-82
2021/07/03 16:57:42;;;;;;;6.10;5.60;;;24.10;74.90;;;;;;10492935;28;20221;-82
2021/07/03 17:02:44;;;;;;;6.70;6.20;;;24.10;75.40;;;;;;10464871;28;20236;-82
2021/07/03 17:07:48;;;;;;;7.37;6.77;;;24.00;76.80;;;;;;10493783;28;20225;-82
2021/07/03 17:12:50;;;;;;;6.90;6.40;;;24.00;75.60;;;;;;10503147;28;20249;-82
2021/07/03 17:17:53;;;;;;;5.53;5.07;;;24.10;76.30;;;;;;10483500;28;20220;-83
2021/07/03 17:22:56;;;;;;;6.20;5.60;;;24.10;74.80;;;;;;10477780;28;20224;-83
2021/07/03 17:27:58;;;;;;;7.50;6.90;;;24.10;76.50;;;;;;10491702;28;20248;-80
2021/07/03 17:33:00;;;;;;;7.67;6.37;;;24.00;76.00;;;;;;10475691;28;20588;-81
2021/07/03 17:38:07;;;;;;;11.33;7.93;;;23.90;76.70;;;;;;10492817;28;20196;-82
2021/07/03 17:43:09;;;;;;;8.67;7.97;;;23.80;77.30;;;;;;10463777;28;20208;-82
2021/07/03 17:48:11;;;;;;;7.37;6.60;;;23.80;78.40;;;;;;10478228;28;20349;-82
2021/07/03 17:53:15;;;;;;;9.30;8.40;;;23.70;79.30;;;;;;10479413;28;20195;-82
2021/07/03 17:58:17;;;;;;;10.47;9.60;;;23.70;78.50;;;;;;10478245;28;20622;-82
2021/07/03 18:03:19;;;;;;;10.40;9.50;;;23.60;79.40;;;;;;10490817;28;20561;-82
2021/07/03 18:08:23;;;;;;;7.93;7.20;;;23.50;79.60;;;;;;10495837;28;20221;-82
2021/07/03 18:13:25;;;;;;;6.90;6.30;;;23.50;79.50;;;;;;10473278;28;20228;-84
2021/07/03 18:18:27;;;;;;;8.30;6.80;;;23.40;79.00;;;;;;10474212;28;20804;-83
2021/07/03 18:23:31;;;;;;;6.50;6.00;;;23.40;79.90;;;;;;10453386;28;20229;-81
2021/07/03 18:28:33;;;;;;;6.60;6.07;;;23.40;78.30;;;;;;10500525;28;20224;-82
2021/07/03 18:33:36;;;;;;;6.80;6.23;;;23.30;80.40;;;;;;10478144;28;20696;-83
2021/07/03 18:38:41;;;;;;;6.83;6.13;;;23.10;83.20;;;;;;10483084;28;20197;-83
2021/07/03 18:43:43;;;;;;;9.30;8.50;;;23.00;84.50;;;;;;10466204;28;20240;-83
2021/07/03 18:48:45;;;;;;;7.33;6.83;;;22.90;88.20;;;;;;10476278;28;20300;-82
2021/07/03 18:53:48;;;;;;;8.80;7.30;;;22.60;91.20;;;;;;10492465;28;20252;-81
2021/07/03 18:58:51;;;;;;;7.60;7.00;;;22.30;92.00;;;;;;10497250;28;20197;-81
2021/07/03 19:03:53;;;;;;;8.97;8.07;;;22.10;93.60;;;;;;10491980;28;20233;-82
2021/07/03 19:08:56;;;;;;;11.50;10.43;;;21.90;95.00;;;;;;10474093;28;20225;-82
2021/07/03 19:13:59;;;;;;;8.27;7.03;;;21.70;96.00;;;;;;10481883;28;20221;-80
2021/07/03 19:19:01;;;;;;;7.70;7.10;;;21.60;97.00;;;;;;10481123;28;20723;-80
2021/07/03 19:24:05;;;;;;;8.80;7.83;;;21.60;97.30;;;;;;10491386;28;20259;-80
2021/07/03 19:29:07;;;;;;;7.40;6.80;;;21.50;98.40;;;;;;10495116;28;20266;-81
2021/07/03 19:34:09;;;;;;;8.30;6.87;;;21.40;99.00;;;;;;10492496;28;20247;-79
2021/07/03 19:39:13;;;;;;;8.87;8.00;;;21.40;99.60;;;;;;10462945;28;20699;-80
2021/07/03 19:44:15;;;;;;;8.30;7.60;;;21.30;99.90;;;;;;10463551;28;20308;-80
2021/07/03 19:49:18;;;;;;;9.87;8.97;;;21.10;99.90;;;;;;10487619;28;20232;-81
2021/07/03 19:54:22;;;;;;;11.10;10.10;;;21.00;99.90;;;;;;10499698;28;20282;-82
2021/07/03 19:59:24;;;;;;;10.53;9.43;;;20.90;99.90;;;;;;10506325;28;20228;-81
2021/07/03 20:04:26;;;;;;;9.07;8.30;;;20.90;99.90;;;;;;10498519;28;20237;-82
2021/07/03 20:09:30;;;;;;;7.63;7.00;;;20.90;99.90;;;;;;10481319;28;20670;-81
2021/07/03 20:14:32;;;;;;;7.90;7.30;;;20.80;99.90;;;;;;10498857;28;20232;-82
2021/07/03 20:19:34;;;;;;;8.60;7.90;;;20.70;99.90;;;;;;10505965;28;20250;-82
2021/07/03 20:24:39;;;;;;;8.00;7.40;;;20.70;99.90;;;;;;10506941;28;20740;-82
2021/07/03 20:29:41;;;;;;;8.77;8.03;;;20.70;99.90;;;;;;10497811;28;20228;-80
2021/07/03 20:34:45;;;;;;;8.50;7.77;;;20.70;99.90;;;;;;10502872;28;20300;-81
2021/07/03 20:39:49;;;;;;;7.30;6.70;;;20.80;99.90;;;;;;10502629;28;20280;-81
2021/07/03 20:44:51;;;;;;;8.30;7.60;;;20.70;99.90;;;;;;10507018;28;20620;-81
2021/07/03 20:49:54;;;;;;;7.70;7.00;;;20.80;99.90;;;;;;10488484;28;20232;-79
2021/07/03 20:54:57;;;;;;;8.70;7.90;;;20.80;99.90;;;;;;10470062;28;20259;-80
2021/07/03 20:59:59;;;;;;;8.20;7.50;;;20.80;99.90;;;;;;10482612;28;20288;-79
2021/07/03 21:05:02;;;;;;;7.70;7.10;;;20.80;99.90;;;;;;10495631;28;20212;-79
2021/07/03 21:10:06;;;;;;;7.60;6.90;;;20.90;99.90;;;;;;10488023;28;20224;-80
2021/07/03 21:15:09;;;;;;;6.97;6.37;;;20.80;99.90;;;;;;10478721;28;20256;-79
2021/07/03 21:20:13;;;;;;;7.77;7.17;;;20.80;99.90;;;;;;10478581;28;20219;-80
2021/07/03 21:25:19;;;;;;;8.03;7.43;;;20.80;99.90;;;;;;10490926;28;20252;-80
2021/07/03 21:30:26;;;;;;;8.67;7.87;;;20.80;99.90;;;;;;10493559;28;20224;-81
2021/07/03 21:35:28;;;;;;;7.33;6.67;;;20.80;99.90;;;;;;10491744;28;20255;-81
2021/07/03 21:40:31;;;;;;;6.77;6.27;;;20.90;99.90;;;;;;10506464;28;20231;-79
2021/07/03 21:45:34;;;;;;;6.37;5.80;;;20.80;99.90;;;;;;10487491;28;20260;-79
2021/07/03 21:50:36;;;;;;;6.57;6.07;;;20.80;99.90;;;;;;10484649;28;20262;-80
2021/07/03 21:55:40;;;;;;;5.90;5.40;;;20.80;99.90;;;;;;10501689;28;20255;-80
2021/07/03 22:00:44;;;;;;;5.10;4.80;;;20.70;99.90;;;;;;10494316;28;20204;-79
2021/07/03 22:05:48;;;;;;;6.20;5.70;;;20.70;99.90;;;;;;10490153;28;20235;-79
2021/07/03 22:10:53;;;;;;;5.87;5.47;;;20.70;99.90;;;;;;10509871;28;20204;-81
2021/07/03 22:15:57;;;;;;;5.73;5.23;;;20.70;99.90;;;;;;10482446;28;20224;-80
2021/07/03 22:21:01;;;;;;;9.57;4.90;;;20.70;99.90;;;;;;10506163;28;20258;-78
2021/07/03 22:26:06;;;;;;;5.33;4.93;;;20.80;99.90;;;;;;10462013;28;20224;-80
2021/07/03 22:31:08;;;;;;;5.60;5.20;;;20.80;99.90;;;;;;10495704;28;20207;-80
2021/07/03 22:36:10;;;;;;;5.63;5.07;;;20.80;99.90;;;;;;10491602;28;20270;-79
2021/07/03 22:41:14;;;;;;;5.50;5.00;;;20.80;99.90;;;;;;10505362;28;20196;-82
2021/07/03 22:46:16;;;;;;;5.40;5.00;;;20.80;99.90;;;;;;10497087;28;20314;-82
2021/07/03 22:51:18;;;;;;;5.17;4.77;;;20.80;99.90;;;;;;10497211;28;20240;-81
2021/07/03 22:56:22;;;;;;;5.17;4.67;;;20.80;99.90;;;;;;10480574;28;20688;-82
2021/07/03 23:01:24;;;;;;;4.83;4.50;;;20.80;99.90;;;;;;10497945;28;20303;-81
2021/07/03 23:06:26;;;;;;;5.23;4.83;;;20.80;99.90;;;;;;10511246;28;20220;-80
2021/07/03 23:11:29;;;;;;;4.70;4.40;;;20.80;99.90;;;;;;10503712;28;20231;-79
2021/07/03 23:16:34;;;;;;;4.90;4.60;;;20.80;99.90;;;;;;10484807;28;20233;-79
2021/07/03 23:21:36;;;;;;;4.90;4.50;;;20.70;99.90;;;;;;10489484;28;20287;-80
2021/07/03 23:26:40;;;;;;;4.93;4.63;;;20.60;99.90;;;;;;10498941;28;20252;-79
2021/07/03 23:31:42;;;;;;;4.97;4.67;;;20.50;99.90;;;;;;10496992;28;20200;-79
2021/07/03 23:36:47;;;;;;;4.80;4.40;;;20.40;99.90;;;;;;10522869;22;20266;-77
2021/07/03 23:41:50;;;;;;;3.93;3.63;;;20.40;99.90;;;;;;10519205;28;20299;-78
2021/07/03 23:46:52;;;;;;;5.03;4.73;;;20.40;99.90;;;;;;10495442;28;20228;-77
2021/07/03 23:51:55;;;;;;;4.93;4.53;;;20.40;99.90;;;;;;10496986;28;20294;-76
2021/07/03 23:56:58;;;;;;;5.67;5.17;;;20.30;99.90;;;;;;10508665;28;20213;-78
